Time;durP1;ratioP1;P1;durP2;ratioP2;P2;SDS_P1;SDS_P2;PMS_P1;PMS_P2;Temp;Humidity;BMP_temperature;BMP_pressure;BME280_temperature;BME280_humidity;BME280_pressure;Samples;Min_cycle;Max_cycle;Signal;HPM_P1;HPM_P2
2022/01/25 00:32:11;;;;;;;0.10;0.10;;;;;;;23.59;15.68;100284.13;4861537;29;20192;-82
2022/01/25 00:34:36;;;;;;;0.10;0.10;;;;;;;23.63;15.93;100282.47;4861465;29;20044;-82
2022/01/25 00:37:05;;;;;;;0.15;0.15;;;;;;;23.62;15.63;100286.28;4861489;29;20408;-82
2022/01/25 00:39:30;;;;;;;0.30;0.30;;;;;;;23.60;15.68;100288.47;4861419;29;20163;-82
2022/01/25 00:41:56;;;;;;;0.20;0.20;;;;;;;23.60;15.74;100288.47;4883914;29;20510;-81
2022/01/25 00:44:21;;;;;;;0.10;0.10;;;;;;;23.61;15.50;100294.72;4898891;29;20036;-82
2022/01/25 00:46:47;;;;;;;0.20;0.20;;;;;;;23.61;15.84;100294.72;4898628;29;20412;-82
2022/01/25 00:49:20;;;;;;;0.17;0.17;;;;;;;23.57;15.87;100289.00;4898407;29;20489;-81
2022/01/25 00:54:16;;;;;;;0.17;0.17;;;;;;;23.59;15.68;100291.47;4898783;29;20040;-82
2022/01/25 00:56:46;;;;;;;0.20;0.20;;;;;;;23.60;15.68;100282.19;4898481;29;20115;-81
2022/01/25 00:59:13;;;;;;;0.20;0.20;;;;;;;23.54;15.82;100286.03;4898362;29;20037;-82
2022/01/25 01:01:39;;;;;;;0.20;0.20;;;;;;;23.57;15.84;100277.28;4898581;29;20444;-81
2022/01/25 01:04:05;;;;;;;0.20;0.20;;;;;;;23.57;15.60;100290.94;4898288;29;20036;-82
2022/01/25 01:06:31;;;;;;;0.30;0.20;;;;;;;23.58;15.67;100296.13;4949308;28;20389;-81
2022/01/25 01:08:56;;;;;;;0.10;0.10;;;;;;;23.59;15.61;100299.66;4959243;28;20035;-81
2022/01/25 01:11:29;;;;;;;0.20;0.20;;;;;;;23.56;15.27;100303.75;4975998;28;20030;-83
2022/01/25 01:32:24;;;;;;;0.20;0.20;;;;;;;23.56;15.35;100294.75;4920196;29;20035;-82
2022/01/25 01:40:55;;;;;;;0.20;0.20;;;;;;;23.59;15.26;100300.50;4898240;29;20047;-82
2022/01/25 01:48:41;;;;;;;0.63;0.20;;;;;;;23.57;15.20;100302.66;4897867;29;20489;-82
2022/01/25 01:51:14;;;;;;;0.10;0.10;;;;;;;23.55;15.25;100301.31;4897726;28;20076;-82
2022/01/25 01:53:40;;;;;;;0.20;0.20;;;;;;;23.54;15.04;100305.13;4898315;29;20075;-82
2022/01/25 01:56:05;;;;;;;0.20;0.20;;;;;;;23.55;15.36;100306.75;4897378;29;20548;-82
2022/01/25 01:58:30;;;;;;;0.20;0.20;;;;;;;23.52;15.23;100290.94;4873399;29;20041;-81
2022/01/25 02:00:56;;;;;;;0.15;0.10;;;;;;;23.54;15.27;100292.31;4878737;29;20044;-81
2022/01/25 02:03:21;;;;;;;0.20;0.20;;;;;;;23.53;15.32;100295.31;4878633;29;20048;-81
2022/01/25 02:05:47;;;;;;;0.20;0.20;;;;;;;23.52;15.30;100296.41;4878537;29;20045;-81
2022/01/25 02:08:12;;;;;;;0.10;0.10;;;;;;;23.54;15.22;100296.94;4878497;29;20433;-81
2022/01/25 02:10:38;;;;;;;0.20;0.20;;;;;;;23.54;15.32;100296.94;4879029;29;20463;-82
2022/01/25 02:13:08;;;;;;;0.20;0.20;;;;;;;23.52;15.10;100304.59;4956526;29;20074;-81
2022/01/25 02:15:36;;;;;;;0.10;0.10;;;;;;;23.53;15.37;100300.78;4956408;29;20105;-81
2022/01/25 02:23:29;;;;;;;0.20;0.20;;;;;;;23.52;14.93;100301.84;4956394;29;20504;-82
2022/01/25 02:25:57;;;;;;;0.10;0.10;;;;;;;23.49;15.00;100307.84;4956140;29;20027;-82
2022/01/25 02:28:24;;;;;;;0.10;0.10;;;;;;;23.50;15.16;100309.50;4955692;29;20077;-82
2022/01/25 02:30:49;;;;;;;0.20;0.20;;;;;;;23.48;14.97;100309.78;4955875;28;20035;-82
2022/01/25 02:33:15;;;;;;;0.20;0.20;;;;;;;23.48;15.09;100306.25;4955846;28;20439;-82
2022/01/25 02:35:41;;;;;;;0.10;0.10;;;;;;;23.52;14.92;100307.31;4975376;28;20082;-81
2022/01/25 02:38:06;;;;;;;0.20;0.20;;;;;;;23.49;14.82;100305.13;4975299;28;20474;-81
2022/01/25 02:40:32;;;;;;;0.20;0.20;;;;;;;23.44;15.21;100300.53;4975341;28;20027;-81
2022/01/25 02:42:57;;;;;;;0.40;0.25;;;;;;;23.50;14.96;100301.31;4973869;28;20385;-82
2022/01/25 02:45:24;;;;;;;0.20;0.20;;;;;;;23.48;14.82;100300.78;4975128;28;20022;-82
2022/01/25 02:50:34;;;;;;;0.10;0.10;;;;;;;23.52;15.02;100296.41;4975151;28;20036;-82
2022/01/25 02:53:00;;;;;;;0.20;0.20;;;;;;;23.48;14.78;100300.78;4975146;28;20023;-81
2022/01/25 02:55:25;;;;;;;0.20;0.20;;;;;;;23.48;15.18;100306.25;4974836;28;20027;-82
2022/01/25 02:57:50;;;;;;;0.17;0.17;;;;;;;23.49;14.90;100305.13;4975070;28;20035;-82
2022/01/25 03:00:16;;;;;;;0.20;0.20;;;;;;;23.46;14.86;100305.66;4975004;28;20027;-81
2022/01/25 03:02:42;;;;;;;0.22;0.22;;;;;;;23.47;14.96;100301.88;4975190;28;20386;-81
2022/01/25 03:05:07;;;;;;;0.22;0.22;;;;;;;23.47;14.84;100297.22;4974847;28;20037;-82
2022/01/25 03:07:33;;;;;;;0.17;0.17;;;;;;;23.45;14.74;100313.03;4974809;28;20062;-81
2022/01/25 03:09:59;;;;;;;0.10;0.10;;;;;;;23.47;14.77;100315.50;4974693;28;20466;-81
2022/01/25 03:12:58;;;;;;;0.15;0.15;;;;;;;23.43;14.52;100321.50;4975021;28;20030;-81
2022/01/25 03:17:48;;;;;;;0.20;0.20;;;;;;;23.44;14.60;100314.97;4974692;28;20030;-81
2022/01/25 03:20:34;;;;;;;0.20;0.20;;;;;;;23.46;14.64;100314.69;4973845;28;20054;-82
2022/01/25 03:23:05;;;;;;;0.10;0.10;;;;;;;23.46;14.72;100324.75;4975429;28;20369;-81
2022/01/25 03:25:31;;;;;;;0.20;0.20;;;;;;;23.45;14.64;100321.22;4974707;28;20393;-81
2022/01/25 03:27:57;;;;;;;0.10;0.10;;;;;;;23.43;14.46;100315.25;4974476;28;20027;-82
2022/01/25 03:30:23;;;;;;;0.10;0.10;;;;;;;23.43;14.51;100312.50;4974792;28;20126;-81
2022/01/25 03:32:49;;;;;;;0.20;0.20;;;;;;;23.43;14.64;100318.78;4974637;28;20082;-82
2022/01/25 03:35:14;;;;;;;0.20;0.20;;;;;;;23.47;14.36;100320.94;4974824;28;20023;-81
2022/01/25 03:37:39;;;;;;;0.20;0.20;;;;;;;23.46;14.47;100320.16;4974213;28;20078;-82
2022/01/25 03:40:05;;;;;;;0.20;0.20;;;;;;;23.42;14.66;100317.16;4973325;28;20038;-82
2022/01/25 03:42:36;;;;;;;0.10;0.10;;;;;;;23.46;14.30;100324.75;4976952;28;20488;-82
2022/01/25 03:45:01;;;;;;;0.20;0.20;;;;;;;23.42;14.40;100314.44;4978432;28;20059;-81
2022/01/25 03:47:42;;;;;;;0.20;0.20;;;;;;;23.41;14.35;100318.25;4978241;28;20078;-82
2022/01/25 03:50:07;;;;;;;0.17;0.17;;;;;;;23.46;14.45;100320.16;4977259;28;20041;-82
2022/01/25 03:52:35;;;;;;;0.10;0.10;;;;;;;23.44;14.27;100331.31;4978271;28;20026;-82
2022/01/25 03:55:01;;;;;;;0.10;0.10;;;;;;;23.43;14.44;100332.41;4978224;28;20038;-81
2022/01/25 03:57:26;;;;;;;0.20;0.20;;;;;;;23.44;14.29;100328.59;4978156;28;20023;-82
2022/01/25 03:59:52;;;;;;;0.10;0.10;;;;;;;23.41;14.35;100328.34;4978083;28;20483;-82
2022/01/25 04:02:18;;;;;;;0.10;0.10;;;;;;;23.39;14.27;100316.88;4978066;28;20085;-81
2022/01/25 04:04:46;;;;;;;0.20;0.20;;;;;;;23.46;14.12;100336.50;4978319;28;20031;-81
2022/01/25 04:07:13;;;;;;;0.17;0.17;;;;;;;23.49;14.07;100335.13;4978469;28;20038;-83
2022/01/25 04:09:39;;;;;;;0.10;0.10;;;;;;;23.52;14.21;100340.03;4978263;28;20104;-81
2022/01/25 04:12:05;;;;;;;0.95;0.30;;;;;;;23.54;14.49;100335.97;4978965;28;20466;-82
2022/01/25 04:14:30;;;;;;;1.45;0.20;;;;;;;23.55;14.51;100334.03;4979547;28;20050;-82
2022/01/25 04:17:03;;;;;;;0.10;0.10;;;;;;;23.62;14.29;100323.66;4978972;28;20038;-81
2022/01/25 04:19:35;;;;;;;0.40;0.20;;;;;;;23.61;14.22;100322.00;4981948;28;20027;-80
2022/01/25 04:27:20;;;;;;;0.20;0.20;;;;;;;23.72;14.11;100336.47;4990967;28;20037;-82
2022/01/25 04:29:45;;;;;;;0.52;0.20;;;;;;;23.76;14.04;100335.63;4993439;28;20027;-84
2022/01/25 04:32:14;;;;;;;0.17;0.17;;;;;;;23.79;13.98;100343.25;4992323;28;20031;-82
2022/01/25 04:34:44;;;;;;;0.20;0.20;;;;;;;23.77;14.17;100336.44;4992100;28;20030;-82
2022/01/25 04:59:03;;;;;;;0.10;0.10;;;;;;;24.00;13.67;100337.75;4933896;29;20048;-81
2022/01/25 05:01:28;;;;;;;0.20;0.20;;;;;;;24.04;13.71;100346.22;4937671;28;20048;-81
2022/01/25 05:04:07;;;;;;;0.30;0.20;;;;;;;24.05;13.60;100343.22;4936601;29;20064;-82
2022/01/25 05:06:33;;;;;;;0.20;0.20;;;;;;;24.07;13.63;100349.19;4935691;29;20040;-82
2022/01/25 05:09:09;;;;;;;0.20;0.20;;;;;;;24.08;13.61;100352.75;4940280;29;20029;-81
2022/01/25 05:11:37;;;;;;;0.30;0.20;;;;;;;24.10;13.68;100354.09;4918614;29;20096;-82
2022/01/25 05:16:34;;;;;;;0.20;0.20;;;;;;;24.14;13.51;100354.34;4939956;29;20020;-82
2022/01/25 05:19:36;;;;;;;0.17;0.17;;;;;;;24.15;13.65;100361.47;4940434;29;20036;-81
2022/01/25 05:22:06;;;;;;;0.20;0.20;;;;;;;24.14;13.29;100368.81;4940467;29;20081;-82
2022/01/25 05:24:42;;;;;;;0.25;0.20;;;;;;;24.22;13.73;100367.44;4940926;29;20051;-81
2022/01/25 05:27:09;;;;;;;0.30;0.30;;;;;;;24.18;13.25;100367.19;4940550;29;20056;-82
2022/01/25 05:29:35;;;;;;;0.13;0.13;;;;;;;24.21;13.31;100360.34;4940847;29;20092;-81
2022/01/25 05:32:00;;;;;;;0.20;0.20;;;;;;;24.24;13.34;100358.97;4939871;29;20068;-82
2022/01/25 05:34:25;;;;;;;0.20;0.20;;;;;;;24.24;13.38;100362.50;4971571;28;20068;-82
2022/01/25 05:36:51;;;;;;;0.10;0.10;;;;;;;24.26;13.46;100370.44;4982164;28;20027;-82
2022/01/25 05:39:22;;;;;;;0.20;0.20;;;;;;;24.23;13.31;100365.53;4999595;28;20047;-82
2022/01/25 05:41:57;;;;;;;0.20;0.20;;;;;;;24.25;13.44;100376.97;4999403;28;20021;-82
2022/01/25 05:44:56;;;;;;;0.30;0.30;;;;;;;24.19;13.39;100355.16;4998910;28;20042;-81
2022/01/25 05:47:13;;;;;;;0.20;0.20;;;;;;;24.29;13.29;100359.75;4998605;28;20159;-83
2022/01/25 05:49:38;;;;;;;0.20;0.20;;;;;;;24.33;13.18;100365.47;4993763;28;20053;-80
2022/01/25 05:52:05;;;;;;;0.20;0.20;;;;;;;24.38;13.23;100379.09;4982063;28;20194;-80
2022/01/25 05:54:30;;;;;;;1.58;0.20;;;;;;;24.36;13.18;100370.38;4981562;28;20053;-79
2022/01/25 05:56:56;;;;;;;0.25;0.20;;;;;;;24.40;13.54;100374.19;4980931;28;20473;-79
2022/01/25 05:59:21;;;;;;;1.13;0.20;;;;;;;24.42;13.38;100379.38;4980640;28;20037;-80
2022/01/25 06:01:48;;;;;;;0.30;0.22;;;;;;;24.44;13.37;100380.72;4978275;28;20027;-80
2022/01/25 06:04:13;;;;;;;0.20;0.20;;;;;;;24.43;13.37;100376.34;4977419;28;20525;-81
2022/01/25 06:06:38;;;;;;;0.20;0.20;;;;;;;24.46;13.37;100381.25;4978589;28;20043;-79
2022/01/25 06:09:04;;;;;;;0.30;0.30;;;;;;;24.44;13.53;100382.63;4978040;28;20054;-78
2022/01/25 06:11:29;;;;;;;0.40;0.20;;;;;;;24.46;13.70;100385.91;4978645;28;20031;-80
2022/01/25 06:13:55;;;;;;;0.90;0.20;;;;;;;24.40;13.30;100362.44;4977979;28;20031;-80
2022/01/25 06:16:21;;;;;;;0.32;0.20;;;;;;;24.47;13.42;100377.41;4978800;28;20030;-79
2022/01/25 06:18:47;;;;;;;0.25;0.20;;;;;;;24.51;13.16;100380.44;4978632;28;20374;-79
2022/01/25 06:21:12;;;;;;;0.20;0.20;;;;;;;24.50;13.12;100387.78;4977879;28;20084;-79
2022/01/25 06:23:39;;;;;;;1.23;0.30;;;;;;;24.48;13.15;100392.72;4977932;28;20445;-77
2022/01/25 06:26:04;;;;;;;1.55;0.40;;;;;;;24.54;13.27;100407.19;4978741;28;20041;-78
2022/01/25 06:28:29;;;;;;;0.30;0.30;;;;;;;24.50;13.52;100406.91;4977167;28;20031;-78
2022/01/25 06:30:55;;;;;;;0.40;0.30;;;;;;;24.58;13.44;100415.66;4978458;28;20031;-77
2022/01/25 06:33:20;;;;;;;0.32;0.20;;;;;;;24.60;13.47;100408.81;4976737;28;20378;-79
2022/01/25 06:35:46;;;;;;;1.42;0.50;;;;;;;24.63;13.67;100407.41;4978511;28;20485;-76
2022/01/25 06:38:13;;;;;;;0.50;0.40;;;;;;;24.68;13.57;100419.16;4959740;28;20056;-76
2022/01/25 06:40:38;;;;;;;0.60;0.50;;;;;;;24.69;13.11;100417.25;4976707;28;20049;-76
2022/01/25 06:43:04;;;;;;;0.82;0.22;;;;;;;24.75;12.91;100421.59;4977299;28;20030;-76
2022/01/25 06:45:29;;;;;;;1.63;0.20;;;;;;;24.77;13.02;100430.31;4977213;28;20361;-76
2022/01/25 06:47:55;;;;;;;1.42;0.45;;;;;;;24.71;13.09;100436.91;4976163;28;20054;-75
2022/01/25 06:50:22;;;;;;;0.20;0.20;;;;;;;24.79;13.28;100441.78;4977173;28;20046;-77
2022/01/25 06:52:48;;;;;;;0.47;0.30;;;;;;;24.81;13.40;100427.84;4960757;28;20019;-78
2022/01/25 06:55:15;;;;;;;0.30;0.30;;;;;;;24.72;13.30;100447.56;4976961;28;20033;-77
2022/01/25 06:57:40;;;;;;;0.40;0.30;;;;;;;24.73;12.91;100448.34;4977502;28;20041;-77
2022/01/25 07:00:30;;;;;;;0.73;0.40;;;;;;;24.92;13.08;100438.44;4975894;28;20133;-75
2022/01/25 07:02:55;;;;;;;0.22;0.22;;;;;;;24.90;13.16;100448.81;4977097;28;20072;-76
2022/01/25 07:05:21;;;;;;;0.63;0.40;;;;;;;24.96;12.86;100459.72;4977409;28;20419;-75
2022/01/25 07:07:47;;;;;;;0.50;0.20;;;;;;;25.00;13.20;100458.88;4978507;28;20034;-81
2022/01/25 07:10:12;;;;;;;0.50;0.40;;;;;;;25.02;13.09;100480.47;4979206;28;20030;-85
2022/01/25 07:12:39;;;;;;;0.70;0.30;;;;;;;24.98;13.02;100469.28;4976816;28;20034;-82
2022/01/25 07:15:05;;;;;;;0.30;0.30;;;;;;;25.00;13.05;100477.22;4959446;28;20043;-82
2022/01/25 07:17:30;;;;;;;1.92;0.30;;;;;;;25.03;12.94;100479.38;4978852;28;20045;-81
2022/01/25 07:19:56;;;;;;;0.57;0.30;;;;;;;25.09;13.04;100481.81;4980666;28;20350;-83
2022/01/25 07:22:23;;;;;;;0.73;0.30;;;;;;;25.04;12.97;100481.00;4982025;28;20042;-80
2022/01/25 07:24:48;;;;;;;0.30;0.30;;;;;;;25.04;12.80;100478.25;4963729;28;20073;-82
2022/01/25 07:27:14;;;;;;;0.25;0.20;;;;;;;25.07;12.68;100477.72;4978282;28;20034;-81
2022/01/25 07:29:39;;;;;;;0.70;0.30;;;;;;;24.79;13.23;100482.78;4946484;28;20057;-82
2022/01/25 07:32:05;;;;;;;0.43;0.30;;;;;;;25.03;12.99;100493.88;4980852;28;20047;-80
2022/01/25 07:34:30;;;;;;;0.32;0.30;;;;;;;25.06;12.90;100493.31;4980221;28;20022;-82
2022/01/25 07:36:56;;;;;;;0.30;0.30;;;;;;;25.02;12.98;100475.81;4977895;28;20046;-78
2022/01/25 07:39:21;;;;;;;0.98;0.40;;;;;;;25.05;12.61;100486.19;4979963;28;20037;-77
2022/01/25 07:41:47;;;;;;;0.98;0.30;;;;;;;25.08;13.04;100499.31;4979230;28;20178;-79
2022/01/25 07:44:12;;;;;;;0.63;0.43;;;;;;;25.12;13.17;100494.91;4977372;28;20101;-79
2022/01/25 07:46:39;;;;;;;1.23;0.30;;;;;;;25.11;13.07;100500.63;4945645;28;20234;-77
2022/01/25 07:49:05;;;;;;;0.20;0.20;;;;;;;25.15;12.68;100506.38;4946164;28;20043;-78
2022/01/25 07:51:31;;;;;;;0.50;0.30;;;;;;;25.16;12.86;100508.81;4980540;28;20428;-80
2022/01/25 07:53:57;;;;;;;0.22;0.20;;;;;;;25.13;12.83;100514.88;4979572;28;20035;-79
2022/01/25 07:56:23;;;;;;;0.30;0.30;;;;;;;25.14;12.64;100518.41;4962737;28;20377;-79
2022/01/25 07:58:49;;;;;;;1.10;0.40;;;;;;;25.07;12.64;100522.25;4977671;28;20035;-79
2022/01/25 08:01:15;;;;;;;0.30;0.30;;;;;;;25.11;12.74;100522.50;4978883;28;20026;-77
2022/01/25 08:03:40;;;;;;;0.70;0.30;;;;;;;25.13;12.93;100520.34;4979101;28;20050;-80
2022/01/25 08:06:07;;;;;;;0.50;0.30;;;;;;;25.12;13.00;100535.09;4961277;28;20469;-79
2022/01/25 08:08:33;;;;;;;1.30;0.25;;;;;;;25.10;12.87;100540.03;4978596;28;20085;-81
2022/01/25 08:10:59;;;;;;;0.55;0.30;;;;;;;25.14;12.81;100532.91;4977138;28;20038;-80
2022/01/25 08:13:24;;;;;;;0.43;0.30;;;;;;;25.13;12.92;100539.47;4978450;28;20030;-80
2022/01/25 08:15:50;;;;;;;0.55;0.25;;;;;;;25.21;12.54;100532.59;4978241;28;20121;-80
2022/01/25 08:18:15;;;;;;;2.15;0.30;;;;;;;25.18;12.56;100539.47;4977962;28;20038;-80
2022/01/25 08:20:42;;;;;;;0.65;0.40;;;;;;;25.30;12.61;100539.13;4944637;28;20370;-79
2022/01/25 08:23:08;;;;;;;1.02;0.32;;;;;;;25.27;12.72;100542.44;4943207;28;20042;-78
2022/01/25 08:25:34;;;;;;;0.73;0.55;;;;;;;25.38;12.57;100537.72;4978940;28;20089;-78
2022/01/25 08:28:00;;;;;;;2.75;0.80;;;;;;;25.33;12.65;100538.56;4977696;28;20381;-81
2022/01/25 08:30:25;;;;;;;0.90;0.60;;;;;;;25.27;12.84;100537.78;4977699;28;20038;-79
2022/01/25 08:32:51;;;;;;;1.38;0.65;;;;;;;25.37;12.69;100538.81;4978339;28;20027;-78
2022/01/25 08:35:17;;;;;;;0.80;0.50;;;;;;;25.35;12.74;100544.56;4977936;28;20026;-75
2022/01/25 08:37:42;;;;;;;0.80;0.60;;;;;;;25.32;12.58;100552.53;4976985;28;20038;-77
2022/01/25 08:40:08;;;;;;;0.68;0.50;;;;;;;25.34;12.55;100556.63;4977603;28;20027;-76
2022/01/25 08:42:34;;;;;;;1.55;0.63;;;;;;;25.36;12.68;100559.09;4977572;28;20027;-76
2022/01/25 08:45:00;;;;;;;1.05;0.50;;;;;;;25.36;12.84;100572.75;4977650;28;20029;-76
2022/01/25 08:47:25;;;;;;;0.82;0.40;;;;;;;25.37;12.58;100568.91;4959209;28;20035;-77
2022/01/25 08:49:51;;;;;;;1.75;0.50;;;;;;;25.41;12.80;100575.47;4977493;28;20086;-79
2022/01/25 08:52:16;;;;;;;1.00;0.40;;;;;;;25.55;12.48;100576.47;4977477;28;20027;-78
2022/01/25 08:54:42;;;;;;;0.82;0.40;;;;;;;25.51;12.47;100575.41;4977221;28;20027;-75
2022/01/25 08:57:07;;;;;;;1.20;0.50;;;;;;;25.58;12.65;100586.03;4977427;28;20042;-79
2022/01/25 08:59:32;;;;;;;2.05;0.47;;;;;;;25.64;12.91;100582.16;4977552;28;20030;-76
2022/01/25 09:01:58;;;;;;;0.82;0.43;;;;;;;25.71;12.44;100590.84;4976536;28;20031;-78
2022/01/25 09:04:23;;;;;;;1.67;0.40;;;;;;;25.62;12.63;100601.59;4977068;28;20037;-77
2022/01/25 09:06:49;;;;;;;2.03;0.40;;;;;;;25.66;12.63;100597.19;4977336;28;20059;-77
2022/01/25 09:09:14;;;;;;;0.70;0.40;;;;;;;25.52;12.73;100598.91;4978135;28;20027;-77
2022/01/25 09:11:40;;;;;;;0.93;0.57;;;;;;;25.61;12.52;100610.91;4977905;28;20031;-78
2022/01/25 09:14:06;;;;;;;2.15;0.30;;;;;;;25.62;12.44;100618.00;4977411;28;20030;-77
2022/01/25 09:16:32;;;;;;;0.93;0.40;;;;;;;25.63;12.26;100618.81;4977279;28;20065;-76
2022/01/25 09:18:57;;;;;;;0.30;0.30;;;;;;;25.59;12.05;100615.81;4976735;28;20031;-78
2022/01/25 09:21:22;;;;;;;0.77;0.40;;;;;;;25.55;12.08;100614.78;4976304;28;20029;-77
2022/01/25 09:23:48;;;;;;;1.15;0.40;;;;;;;25.53;12.35;100611.50;4976992;28;20034;-77
2022/01/25 09:26:13;;;;;;;0.52;0.30;;;;;;;25.58;12.21;100619.69;4976494;28;20054;-75
2022/01/25 09:28:39;;;;;;;0.43;0.28;;;;;;;25.58;11.88;100622.44;4976618;28;20027;-75
2022/01/25 09:31:04;;;;;;;0.30;0.30;;;;;;;25.58;11.93;100630.63;4976077;28;20465;-76
2022/01/25 09:33:30;;;;;;;0.68;0.60;;;;;;;25.65;11.67;100619.38;4976655;28;20071;-76
2022/01/25 09:35:58;;;;;;;2.60;1.02;;;;;;;25.56;11.71;100621.91;4976586;28;20082;-75
2022/01/25 09:38:25;;;;;;;2.08;0.85;;;;;;;25.55;12.00;100631.19;4958887;28;20062;-76
2022/01/25 09:40:51;;;;;;;0.73;0.43;;;;;;;25.61;11.81;100630.06;4975714;28;20106;-75
2022/01/25 09:43:17;;;;;;;0.70;0.60;;;;;;;25.59;11.86;100632.25;4976989;28;20546;-76
2022/01/25 09:45:42;;;;;;;1.15;0.57;;;;;;;25.60;11.87;100633.09;4976784;28;20417;-76
2022/01/25 09:48:08;;;;;;;0.38;0.38;;;;;;;25.65;11.89;100638.53;4976032;28;20150;-75
2022/01/25 09:50:34;;;;;;;1.00;0.50;;;;;;;25.59;11.67;100654.16;4975987;28;20026;-76
2022/01/25 09:53:00;;;;;;;0.63;0.30;;;;;;;25.66;11.85;100665.63;4976476;28;20051;-77
2022/01/25 09:55:26;;;;;;;0.60;0.30;;;;;;;25.64;12.02;100667.00;4977165;28;20041;-77
2022/01/25 09:57:52;;;;;;;0.95;0.30;;;;;;;25.70;11.94;100659.56;4977226;28;20030;-78
2022/01/25 10:00:20;;;;;;;0.28;0.28;;;;;;;25.74;11.74;100660.66;4976359;28;20056;-76
2022/01/25 10:02:58;;;;;;;0.50;0.40;;;;;;;25.63;11.69;100666.19;4976766;28;20035;-78
2022/01/25 10:05:34;;;;;;;0.50;0.32;;;;;;;25.73;11.67;100659.00;4977129;28;20042;-77
2022/01/25 10:08:01;;;;;;;1.08;0.30;;;;;;;25.71;11.74;100655.75;4976306;28;20037;-78
2022/01/25 10:10:27;;;;;;;0.20;0.20;;;;;;;25.65;11.94;100641.28;4975556;28;20177;-77
2022/01/25 10:12:55;;;;;;;0.30;0.30;;;;;;;25.68;11.95;100649.72;4976112;28;20043;-75
2022/01/25 10:15:24;;;;;;;0.93;0.40;;;;;;;25.62;11.68;100656.31;4976495;28;20041;-75
2022/01/25 10:17:49;;;;;;;2.75;0.30;;;;;;;25.66;12.05;100660.16;4975288;28;20070;-75
2022/01/25 10:20:28;;;;;;;0.38;0.30;;;;;;;25.79;11.97;100660.63;4975564;28;20034;-75
2022/01/25 10:22:57;;;;;;;0.40;0.30;;;;;;;25.68;11.74;100651.63;4975298;28;20413;-75
2022/01/25 10:25:37;;;;;;;0.50;0.28;;;;;;;25.72;11.86;100654.66;4975843;28;20039;-77
2022/01/25 10:28:06;;;;;;;2.30;0.80;;;;;;;25.63;11.94;100649.75;4958289;28;20026;-75
2022/01/25 10:30:36;;;;;;;1.98;1.10;;;;;;;25.68;11.65;100663.41;4973741;28;20097;-75
2022/01/25 10:33:02;;;;;;;5.90;1.20;;;;;;;25.70;11.73;100659.56;4975747;28;20026;-75
2022/01/25 10:35:31;;;;;;;4.03;1.00;;;;;;;25.72;11.65;100668.34;4978049;28;20022;-77
2022/01/25 10:38:04;;;;;;;1.80;0.80;;;;;;;25.65;11.66;100663.97;4975069;28;20042;-75
2022/01/25 10:40:36;;;;;;;5.07;0.60;;;;;;;25.73;11.65;100653.53;4976421;28;20383;-77
2022/01/25 10:43:04;;;;;;;1.70;0.75;;;;;;;25.72;11.62;100654.66;4976085;28;20319;-77
2022/01/25 10:45:33;;;;;;;1.58;0.52;;;;;;;25.75;11.96;100663.13;4941757;28;20043;-77
2022/01/25 10:47:58;;;;;;;1.70;0.40;;;;;;;25.77;11.58;100657.34;4974881;28;20054;-76
2022/01/25 10:50:34;;;;;;;0.43;0.40;;;;;;;25.73;11.78;100662.56;4975196;28;20027;-75
2022/01/25 10:53:15;;;;;;;1.52;0.40;;;;;;;25.77;11.73;100671.03;4974470;28;20030;-76
2022/01/25 10:55:48;;;;;;;0.65;0.40;;;;;;;25.68;11.87;100668.91;4976519;28;20536;-74
2022/01/25 10:58:13;;;;;;;0.50;0.40;;;;;;;25.58;11.82;100677.16;4975990;28;20385;-75
2022/01/25 11:00:43;;;;;;;1.63;0.47;;;;;;;25.68;11.60;100674.38;4974913;28;20023;-75
2022/01/25 11:03:08;;;;;;;1.55;0.50;;;;;;;25.69;11.56;100675.19;4975980;28;20034;-76
2022/01/25 11:05:36;;;;;;;1.08;0.40;;;;;;;25.71;11.79;100677.63;4974884;28;20442;-75
2022/01/25 11:08:21;;;;;;;1.77;0.40;;;;;;;25.71;11.56;100678.44;4974558;28;20462;-75
2022/01/25 11:10:56;;;;;;;0.50;0.30;;;;;;;25.71;11.61;100672.16;4975418;28;20359;-74
2022/01/25 11:15:54;;;;;;;0.65;0.40;;;;;;;25.68;11.63;100679.84;4975561;28;20454;-73
2022/01/25 11:18:20;;;;;;;0.85;0.30;;;;;;;25.76;11.47;100685.81;4974394;28;20030;-74
2022/01/25 11:20:46;;;;;;;0.68;0.28;;;;;;;25.78;11.53;100686.34;4974673;28;20093;-74
2022/01/25 11:23:11;;;;;;;0.75;0.45;;;;;;;25.68;11.58;100684.47;4973912;28;20034;-76
2022/01/25 11:25:37;;;;;;;0.73;0.32;;;;;;;25.70;11.63;100685.03;4974051;28;20102;-76
2022/01/25 11:28:05;;;;;;;1.95;0.30;;;;;;;25.81;11.50;100696.75;4957860;28;20516;-74
2022/01/25 11:30:32;;;;;;;1.83;0.30;;;;;;;25.72;11.68;100707.47;4975908;28;20077;-75
2022/01/25 11:33:00;;;;;;;0.25;0.20;;;;;;;25.77;11.47;100695.69;4957814;28;20027;-75
2022/01/25 11:35:25;;;;;;;0.90;0.30;;;;;;;25.79;11.64;100709.91;4944750;28;20103;-75
2022/01/25 11:37:51;;;;;;;0.68;0.30;;;;;;;25.75;11.62;100711.53;4975317;28;20035;-74
2022/01/25 11:40:30;;;;;;;1.08;0.45;;;;;;;25.78;11.63;100714.53;4974816;28;20089;-74
2022/01/25 11:42:58;;;;;;;1.00;0.30;;;;;;;25.66;11.44;100703.09;4940847;28;20050;-75
2022/01/25 11:45:29;;;;;;;0.20;0.20;;;;;;;25.68;11.52;100709.09;4975344;28;20031;-75
2022/01/25 11:47:54;;;;;;;0.52;0.20;;;;;;;25.75;11.79;100711.53;4973756;28;20477;-75
2022/01/25 11:50:21;;;;;;;0.50;0.30;;;;;;;25.70;11.47;100708.81;4974366;28;20159;-75
2022/01/25 11:52:54;;;;;;;0.70;0.40;;;;;;;25.73;11.59;100708.28;4941103;28;20037;-76
2022/01/25 11:55:20;;;;;;;1.67;0.20;;;;;;;25.81;11.67;100710.44;4974274;28;20038;-75
2022/01/25 11:57:58;;;;;;;0.98;0.30;;;;;;;25.76;11.28;100707.72;4974752;28;20030;-75
2022/01/25 12:00:44;;;;;;;0.30;0.30;;;;;;;25.83;11.34;100708.22;4973969;28;20106;-75
2022/01/25 12:03:25;;;;;;;1.15;0.32;;;;;;;25.80;11.18;100717.00;4975962;28;20390;-74
2022/01/25 12:06:03;;;;;;;0.50;0.30;;;;;;;25.71;11.45;100716.75;4977871;28;20117;-75
2022/01/25 12:08:39;;;;;;;0.60;0.40;;;;;;;25.79;11.45;100718.09;4977779;28;20031;-75
2022/01/25 12:11:29;;;;;;;0.75;0.40;;;;;;;25.82;11.28;100720.28;4977927;28;20080;-74
2022/01/25 12:14:17;;;;;;;1.98;0.30;;;;;;;25.82;11.39;100714.81;4977193;28;20030;-76
2022/01/25 12:16:56;;;;;;;0.80;0.40;;;;;;;25.72;11.19;100709.38;4977786;28;20069;-75
2022/01/25 12:19:31;;;;;;;0.60;0.50;;;;;;;25.74;11.34;100723.59;4977536;28;20099;-75
2022/01/25 12:22:25;;;;;;;0.68;0.30;;;;;;;25.86;11.30;100724.91;4978141;28;20045;-76
2022/01/25 12:25:04;;;;;;;1.77;0.50;;;;;;;25.77;11.07;100721.13;4977488;28;20104;-76
2022/01/25 12:27:54;;;;;;;0.45;0.30;;;;;;;25.75;11.25;100723.34;4977263;28;20031;-75
2022/01/25 12:30:32;;;;;;;0.88;0.32;;;;;;;25.78;11.20;100721.94;4960510;28;20486;-75
2022/01/25 12:33:16;;;;;;;0.80;0.40;;;;;;;25.75;11.22;100730.69;4978968;28;20027;-72
2022/01/25 12:35:44;;;;;;;0.30;0.30;;;;;;;25.81;10.93;100732.31;4977047;28;20022;-76
2022/01/25 12:38:41;;;;;;;0.93;0.35;;;;;;;25.74;11.08;100727.16;4977716;28;20042;-73
2022/01/25 12:41:10;;;;;;;0.30;0.30;;;;;;;25.71;11.11;100746.06;4977800;28;20334;-73
2022/01/25 12:43:58;;;;;;;0.60;0.35;;;;;;;25.80;10.99;100749.84;4976971;28;20158;-72
2022/01/25 12:46:33;;;;;;;1.20;0.60;;;;;;;25.75;10.95;100755.34;4977138;28;20034;-76
2022/01/25 12:49:14;;;;;;;4.10;1.40;;;;;;;25.81;11.16;100757.78;4977446;28;20051;-76
2022/01/25 12:51:41;;;;;;;2.80;1.23;;;;;;;25.76;11.12;100759.72;4977298;28;20041;-75
2022/01/25 12:54:09;;;;;;;2.25;1.40;;;;;;;25.74;11.28;100759.19;4975822;28;20038;-75
2022/01/25 12:56:43;;;;;;;2.10;1.25;;;;;;;25.75;11.01;100763.56;4946419;28;20477;-77
2022/01/25 12:59:14;;;;;;;3.20;1.20;;;;;;;25.72;10.77;100775.09;4974521;28;20398;-76
2022/01/25 13:01:40;;;;;;;2.50;0.80;;;;;;;25.78;10.80;100773.94;4976947;28;20470;-76
2022/01/25 13:04:06;;;;;;;2.45;0.90;;;;;;;25.70;10.97;100766.31;4976793;28;20466;-76
2022/01/25 13:06:36;;;;;;;1.83;0.80;;;;;;;25.66;10.78;100761.41;4975247;28;20035;-76
2022/01/25 13:09:38;;;;;;;1.90;0.70;;;;;;;25.84;10.94;100781.06;4977447;28;20041;-75
2022/01/25 13:14:47;;;;;;;1.20;0.50;;;;;;;25.75;11.02;100777.22;4976661;28;20069;-75
2022/01/25 13:17:20;;;;;;;0.60;0.50;;;;;;;25.77;10.89;100772.31;4976941;28;20038;-76
2022/01/25 13:19:49;;;;;;;1.15;0.40;;;;;;;25.75;10.88;100782.72;4977121;28;20081;-77